Time;durP1;ratioP1;P1;durP2;ratioP2;P2;SDS_P1;SDS_P2;PMS_P1;PMS_P2;Temp;Humidity;BMP_temperature;BMP_pressure;BME280_temperature;BME280_humidity;BME280_pressure;Samples;Min_cycle;Max_cycle;Signal;HPM_P1;HPM_P2
2022/05/12 00:01:46;;;;;;;0.40;0.40;;;;;;;20.27;54.73;100731.19;5112834;28;20035;-80
2022/05/12 00:04:16;;;;;;;0.20;0.20;;;;;;;20.40;53.51;100737.38;5124887;28;20050;-81
2022/05/12 00:06:47;;;;;;;0.40;0.40;;;;;;;20.36;54.04;100745.69;5129431;28;20487;-80
2022/05/12 00:09:17;;;;;;;0.30;0.30;;;;;;;20.40;53.42;100739.22;5134967;28;20039;-80
2022/05/12 00:11:49;;;;;;;3.33;1.50;;;;;;;20.15;54.58;100740.00;5147699;28;20565;-82
2022/05/12 00:14:20;;;;;;;0.20;0.20;;;;;;;20.27;53.49;100747.19;5150879;28;20049;-82
2022/05/12 00:16:51;;;;;;;0.40;0.40;;;;;;;20.25;54.53;100749.91;5122973;28;20026;-81
2022/05/12 00:19:21;;;;;;;2.30;1.00;;;;;;;20.04;55.97;100756.69;5121539;28;20074;-80
2022/05/12 00:21:53;;;;;;;0.20;0.20;;;;;;;20.15;54.17;100748.00;5112844;28;20037;-81
2022/05/12 00:24:24;;;;;;;0.52;0.52;;;;;;;20.12;56.24;100752.56;5145176;28;20209;-81
2022/05/12 00:26:55;;;;;;;0.20;0.20;;;;;;;20.11;53.41;100756.19;5139692;28;20101;-80
2022/05/12 00:29:25;;;;;;;0.40;0.40;;;;;;;20.11;54.29;100764.19;5125217;28;20113;-81
2022/05/12 00:31:56;;;;;;;0.30;0.30;;;;;;;20.07;53.24;100773.31;5126705;28;20828;-81
2022/05/12 00:34:26;;;;;;;0.32;0.32;;;;;;;20.04;55.46;100773.53;5106905;28;20097;-81
2022/05/12 00:36:57;;;;;;;0.52;0.50;;;;;;;20.03;55.01;100782.50;5141813;28;20380;-82
2022/05/12 00:39:28;;;;;;;0.45;0.45;;;;;;;20.05;54.67;100785.88;5129243;28;20138;-80
2022/05/12 00:41:59;;;;;;;0.90;0.57;;;;;;;20.00;53.40;100780.03;5114559;28;20054;-80
2022/05/12 00:44:29;;;;;;;0.75;0.75;;;;;;;20.02;53.40;100795.88;5113064;28;20042;-80
2022/05/12 00:47:00;;;;;;;0.47;0.47;;;;;;;19.90;56.26;100794.88;5144547;28;20023;-81
2022/05/12 00:49:34;;;;;;;0.30;0.30;;;;;;;19.90;54.62;100793.09;5124753;28;20071;-79
2022/05/12 00:52:09;;;;;;;0.30;0.30;;;;;;;19.93;53.45;100808.84;5113542;28;20214;-80
2022/05/12 00:54:48;;;;;;;0.25;0.25;;;;;;;19.84;53.92;100804.09;5147210;28;20486;-81
2022/05/12 00:57:32;;;;;;;0.50;0.50;;;;;;;19.83;53.59;100810.41;5141439;28;20059;-80
2022/05/12 01:00:07;;;;;;;0.40;0.40;;;;;;;19.72;53.60;100816.38;5141674;28;20517;-80
2022/05/12 01:02:42;;;;;;;0.40;0.40;;;;;;;19.65;53.31;100820.41;5108261;28;20510;-79
2022/05/12 01:05:14;;;;;;;0.57;0.57;;;;;;;19.66;53.15;100825.66;5138345;28;20137;-79
2022/05/12 01:07:49;;;;;;;0.75;0.68;;;;;;;19.60;53.49;100830.50;5126204;28;20022;-79
2022/05/12 01:10:19;;;;;;;0.40;0.40;;;;;;;19.52;53.08;100840.75;5138906;28;20425;-79
2022/05/12 01:12:51;;;;;;;0.40;0.40;;;;;;;19.46;52.39;100848.16;5138025;28;20126;-79
2022/05/12 01:15:27;;;;;;;0.93;0.93;;;;;;;19.45;52.51;100856.25;5106202;28;20069;-80
2022/05/12 01:18:10;;;;;;;0.50;0.50;;;;;;;19.35;52.83;100851.50;5147350;28;20057;-79
2022/05/12 01:20:41;;;;;;;0.20;0.20;;;;;;;19.23;52.54;100856.72;5133243;28;20054;-79
2022/05/12 01:23:25;;;;;;;0.40;0.40;;;;;;;19.25;52.53;100854.81;5108003;28;20490;-79
2022/05/12 01:26:08;;;;;;;2.75;0.77;;;;;;;19.08;54.33;100854.06;5144269;28;20121;-79
2022/05/12 01:28:39;;;;;;;0.35;0.35;;;;;;;19.01;53.65;100858.88;5107410;28;20046;-81
2022/05/12 01:31:15;;;;;;;0.38;0.38;;;;;;;19.05;52.80;100859.56;5135453;28;20050;-80
2022/05/12 01:33:46;;;;;;;2.28;0.73;;;;;;;19.01;52.93;100866.03;5120989;28;20514;-79
2022/05/12 01:36:21;;;;;;;0.30;0.30;;;;;;;19.01;53.20;100864.19;5121523;28;20027;-81
2022/05/12 01:38:51;;;;;;;0.20;0.20;;;;;;;18.98;52.77;100882.16;5138039;28;20046;-79
2022/05/12 01:41:22;;;;;;;0.32;0.32;;;;;;;18.79;53.17;100885.88;5135603;28;20027;-79
2022/05/12 01:43:53;;;;;;;0.47;0.47;;;;;;;18.78;54.05;100891.28;5120256;28;20529;-79
2022/05/12 01:46:23;;;;;;;1.02;0.25;;;;;;;18.72;52.92;100890.69;5120448;28;20686;-80
2022/05/12 01:48:54;;;;;;;0.30;0.30;;;;;;;18.63;54.49;100896.56;5135763;28;20085;-80
2022/05/12 01:51:25;;;;;;;0.20;0.20;;;;;;;18.66;53.56;100898.16;5108951;28;20086;-79
2022/05/12 01:53:55;;;;;;;0.30;0.30;;;;;;;18.50;53.87;100901.72;5120487;28;20065;-81
2022/05/12 01:56:26;;;;;;;0.30;0.30;;;;;;;18.46;53.22;100904.63;5118771;28;20035;-79
2022/05/12 01:58:59;;;;;;;;;;;;;;;18.42;53.33;100911.94;5105058;28;20429;-79
2022/05/12 02:01:30;;;;;;;0.35;0.35;;;;;;;18.41;52.95;100912.88;5119628;28;19918;-80
2022/05/12 02:04:02;;;;;;;0.30;0.30;;;;;;;18.37;53.21;100917.50;5136001;28;20085;-79
2022/05/12 02:06:34;;;;;;;0.50;0.47;;;;;;;18.37;53.18;100921.97;5137894;28;20027;-79
2022/05/12 02:09:05;;;;;;;0.40;0.40;;;;;;;18.34;53.17;100932.75;5104884;28;20089;-79
2022/05/12 02:11:36;;;;;;;0.20;0.20;;;;;;;18.34;53.22;100935.41;5106157;28;20035;-79
2022/05/12 02:14:07;;;;;;;0.52;0.52;;;;;;;18.27;52.96;100936.72;5139755;28;20042;-80
2022/05/12 02:16:37;;;;;;;1.23;1.00;;;;;;;18.24;53.05;100929.78;5137378;28;20031;-79
2022/05/12 02:19:09;;;;;;;0.40;0.40;;;;;;;18.22;53.01;100939.63;5116557;28;20043;-79
2022/05/12 02:21:40;;;;;;;0.30;0.30;;;;;;;18.14;52.86;100945.34;5120474;28;20026;-79
2022/05/12 02:24:13;;;;;;;0.73;0.73;;;;;;;18.14;54.31;100952.47;5135664;28;20697;-80
2022/05/12 02:26:44;;;;;;;0.55;0.43;;;;;;;18.07;53.55;100946.63;5117984;28;20035;-79
2022/05/12 02:29:14;;;;;;;0.40;0.40;;;;;;;18.01;53.04;100953.16;5116373;28;20039;-79
2022/05/12 02:31:45;;;;;;;0.63;0.63;;;;;;;17.83;53.63;100962.91;5133318;28;20510;-79
2022/05/12 02:34:15;;;;;;;0.55;0.55;;;;;;;17.77;54.60;100971.22;5107071;28;20023;-79
2022/05/12 02:36:59;;;;;;;0.20;0.20;;;;;;;17.75;54.81;100973.09;5124224;28;20026;-79
2022/05/12 02:39:35;;;;;;;0.57;0.57;;;;;;;17.75;54.68;100973.09;5132137;28;20110;-79
2022/05/12 02:42:08;;;;;;;1.02;0.73;;;;;;;17.77;53.81;100976.53;5137683;28;20031;-79
2022/05/12 02:44:38;;;;;;;1.20;0.70;;;;;;;17.66;53.90;100981.53;5123394;28;20567;-81
2022/05/12 02:47:09;;;;;;;0.65;0.60;;;;;;;17.61;54.09;100977.34;5106453;28;20086;-80
2022/05/12 02:49:39;;;;;;;0.50;0.50;;;;;;;17.69;53.73;100989.34;5123450;28;20047;-80
2022/05/12 02:52:10;;;;;;;0.65;0.65;;;;;;;17.60;53.47;100980.94;5144030;28;20038;-79
2022/05/12 02:54:40;;;;;;;0.50;0.50;;;;;;;17.58;53.55;100993.41;5142789;28;20557;-79
2022/05/12 02:57:11;;;;;;;0.35;0.35;;;;;;;17.49;54.59;100988.59;5124264;28;20034;-79
2022/05/12 02:59:41;;;;;;;0.75;0.75;;;;;;;17.45;53.76;100997.66;5123268;28;20130;-80
2022/05/12 03:02:18;;;;;;;1.00;1.00;;;;;;;17.46;54.41;101004.69;5108028;28;20050;-80
2022/05/12 03:04:49;;;;;;;1.67;1.25;;;;;;;17.43;53.90;101004.81;5138212;28;20142;-80
2022/05/12 03:07:22;;;;;;;0.65;0.65;;;;;;;17.35;54.48;101012.31;5138705;28;20037;-79
2022/05/12 03:09:52;;;;;;;0.70;0.70;;;;;;;17.31;54.12;101023.06;5133573;28;20050;-80
2022/05/12 03:12:24;;;;;;;0.52;0.52;;;;;;;17.33;54.28;101016.81;5109440;28;20038;-79
2022/05/12 03:14:54;;;;;;;1.23;0.65;;;;;;;17.33;53.74;101016.81;5109028;28;20035;-79
2022/05/12 03:17:27;;;;;;;1.50;0.93;;;;;;;17.30;53.76;101025.81;5145909;28;20800;-80
2022/05/12 03:19:58;;;;;;;0.50;0.50;;;;;;;17.24;53.57;101026.13;5147537;28;20809;-80
2022/05/12 03:22:29;;;;;;;0.55;0.55;;;;;;;17.23;54.40;101025.25;5115305;28;20085;-79
2022/05/12 03:24:59;;;;;;;0.32;0.32;;;;;;;17.21;54.28;101021.84;5108335;28;20496;-79
2022/05/12 03:27:30;;;;;;;0.45;0.45;;;;;;;17.12;54.52;101024.94;5123753;28;20590;-80
2022/05/12 03:30:03;;;;;;;1.08;0.90;;;;;;;17.11;54.31;101029.38;5123175;28;20113;-80
2022/05/12 03:32:34;;;;;;;0.67;0.67;;;;;;;17.16;53.58;101029.13;5105448;28;20126;-80
2022/05/12 03:35:05;;;;;;;0.52;0.50;;;;;;;17.10;53.80;101029.47;5121606;28;20359;-79
2022/05/12 03:37:42;;;;;;;0.80;0.80;;;;;;;17.02;53.77;101032.50;5112999;28;20042;-79
2022/05/12 03:40:17;;;;;;;0.30;0.30;;;;;;;17.02;53.72;101039.56;5107886;28;20045;-80
2022/05/12 03:42:47;;;;;;;3.72;1.77;;;;;;;17.02;53.83;101042.22;5095641;28;20045;-80
2022/05/12 03:45:21;;;;;;;0.88;0.82;;;;;;;17.04;53.35;101043.03;5107312;28;20591;-81
2022/05/12 03:47:52;;;;;;;0.30;0.30;;;;;;;16.94;53.69;101046.13;5127581;28;20481;-82
2022/05/12 03:50:27;;;;;;;0.60;0.60;;;;;;;16.94;53.52;101056.72;5143649;28;20625;-80
2022/05/12 03:52:58;;;;;;;0.32;0.32;;;;;;;16.82;53.92;101058.13;5142671;28;20042;-81
2022/05/12 03:55:29;;;;;;;0.90;0.70;;;;;;;16.87;53.60;101059.69;5127433;28;20127;-80
2022/05/12 03:57:59;;;;;;;0.35;0.35;;;;;;;16.80;53.58;101064.44;5111391;28;20030;-80
2022/05/12 04:00:31;;;;;;;0.55;0.50;;;;;;;16.82;53.22;101067.84;5143385;28;20119;-82
2022/05/12 04:03:02;;;;;;;0.40;0.40;;;;;;;16.75;53.19;101075.25;5113358;28;20027;-81
2022/05/12 04:05:33;;;;;;;0.65;0.65;;;;;;;16.67;53.58;101074.78;5109435;28;20065;-81
2022/05/12 04:08:04;;;;;;;0.30;0.30;;;;;;;16.73;53.30;101078.94;5145965;28;20058;-80
2022/05/12 04:10:34;;;;;;;0.40;0.40;;;;;;;16.65;53.58;101089.88;5111692;28;20446;-80
2022/05/12 04:13:07;;;;;;;1.50;0.57;;;;;;;16.60;54.55;101090.09;5134944;28;20062;-82
2022/05/12 04:15:38;;;;;;;0.55;0.52;;;;;;;16.61;53.45;101088.31;5125381;28;20043;-77
2022/05/12 04:18:08;;;;;;;1.35;0.95;;;;;;;16.60;53.61;101094.53;5126574;28;20026;-77
2022/05/12 04:20:39;;;;;;;0.50;0.50;;;;;;;16.57;53.48;101094.66;5140128;28;20062;-78
2022/05/12 04:23:10;;;;;;;0.30;0.30;;;;;;;16.56;53.71;101096.47;5140454;28;20042;-79
2022/05/12 04:25:40;;;;;;;0.20;0.20;;;;;;;16.51;53.78;101103.75;5144181;28;20047;-83
2022/05/12 04:28:11;;;;;;;2.40;0.80;;;;;;;16.48;54.37;101106.56;5108244;28;20037;-82
2022/05/12 04:30:47;;;;;;;0.43;0.43;;;;;;;16.52;54.48;101113.41;5141825;28;20093;-80
2022/05/12 04:36:08;;;;;;;0.75;0.75;;;;;;;16.47;54.34;101108.31;5145621;28;20432;-81
2022/05/12 04:38:38;;;;;;;0.65;0.65;;;;;;;16.44;54.36;101112.91;5133409;28;20052;-82
2022/05/12 04:41:10;;;;;;;0.30;0.30;;;;;;;16.44;54.55;101118.22;5139386;28;20078;-85
2022/05/12 04:43:40;;;;;;;0.80;0.80;;;;;;;16.46;53.94;101124.31;5133048;28;20054;-82
2022/05/12 04:46:11;;;;;;;2.20;1.00;;;;;;;16.44;54.14;101134.97;5132461;28;20046;-82
2022/05/12 04:48:42;;;;;;;0.30;0.30;;;;;;;16.40;54.31;101137.81;5146181;28;20212;-81
2022/05/12 04:51:12;;;;;;;6.43;1.38;;;;;;;16.43;54.34;101141.19;5129630;28;20107;-82
2022/05/12 04:53:43;;;;;;;0.22;0.22;;;;;;;16.51;55.68;101143.47;5139822;28;20039;-81
2022/05/12 04:56:17;;;;;;;0.40;0.40;;;;;;;16.44;56.61;101152.63;5111105;28;20041;-81
2022/05/12 04:58:51;;;;;;;5.57;1.15;;;;;;;16.45;56.40;101154.34;5127628;28;20049;-81
2022/05/12 05:01:23;;;;;;;;;;;;;;;16.44;54.78;101155.28;5119324;28;20041;-82
2022/05/12 05:03:54;;;;;;;0.20;0.20;;;;;;;16.35;55.30;101157.41;5130058;28;20022;-81
2022/05/12 05:06:24;;;;;;;0.47;0.47;;;;;;;16.39;54.33;101160.78;5149294;28;20719;-83
2022/05/12 05:08:55;;;;;;;0.35;0.35;;;;;;;16.41;54.28;101156.28;5137382;28;20049;-84
2022/05/12 05:11:27;;;;;;;0.30;0.30;;;;;;;16.35;54.24;101160.06;5146958;28;20150;-83
2022/05/12 05:13:57;;;;;;;0.35;0.35;;;;;;;16.38;53.97;101160.84;5146839;28;20039;-83
2022/05/12 05:16:29;;;;;;;3.47;1.60;;;;;;;16.43;54.63;101174.75;5128829;28;20042;-82
2022/05/12 05:19:01;;;;;;;2.63;0.85;;;;;;;16.39;54.26;101178.47;5103980;28;20121;-81
2022/05/12 05:21:31;;;;;;;0.45;0.45;;;;;;;16.42;54.10;101186.25;5169186;28;20041;-83
2022/05/12 05:24:03;;;;;;;2.05;0.98;;;;;;;16.36;54.46;101184.78;5130911;28;20122;-83
2022/05/12 05:26:34;;;;;;;1.05;0.95;;;;;;;16.39;54.90;101186.41;5116678;28;20035;-83
2022/05/12 05:29:05;;;;;;;0.25;0.25;;;;;;;16.38;54.23;101190.00;5141163;28;20142;-80
2022/05/12 05:31:37;;;;;;;0.82;0.82;;;;;;;16.35;56.12;101183.88;5128192;28;20069;-80
2022/05/12 05:34:09;;;;;;;0.30;0.30;;;;;;;16.40;54.79;101193.44;5124348;28;20460;-79
2022/05/12 05:36:42;;;;;;;0.43;0.43;;;;;;;16.25;57.33;101193.16;5124813;28;20019;-81
2022/05/12 05:39:22;;;;;;;0.30;0.30;;;;;;;16.36;56.58;101198.84;5134761;28;20541;-81
2022/05/12 05:41:59;;;;;;;2.60;1.80;;;;;;;16.30;56.23;101209.72;5109783;28;20027;-81
2022/05/12 05:44:32;;;;;;;0.57;0.57;;;;;;;16.37;56.26;101210.28;5155173;28;20076;-80
2022/05/12 05:47:07;;;;;;;0.40;0.40;;;;;;;16.39;56.42;101212.91;5160794;28;20034;-82
2022/05/12 05:49:38;;;;;;;1.38;1.08;;;;;;;16.15;58.51;101213.03;5129794;28;20097;-82
2022/05/12 05:55:15;;;;;;;10.45;1.23;;;;;;;16.25;57.37;101229.38;5132881;28;20441;-82
2022/05/12 05:57:46;;;;;;;0.47;0.47;;;;;;;16.23;58.00;101229.47;5141795;28;20039;-82
2022/05/12 06:00:17;;;;;;;19.80;1.70;;;;;;;16.31;56.47;101239.69;5121786;28;20031;-82
2022/05/12 06:02:48;;;;;;;0.20;0.20;;;;;;;16.13;58.32;101236.91;5128509;28;20070;-81
2022/05/12 06:05:18;;;;;;;0.70;0.70;;;;;;;16.31;58.67;101242.34;5126430;28;20117;-81
2022/05/12 06:07:49;;;;;;;0.40;0.40;;;;;;;16.29;58.20;101250.38;5129059;28;20031;-81
2022/05/12 06:10:24;;;;;;;4.38;1.20;;;;;;;16.21;60.62;101248.03;5113442;28;20138;-82
2022/05/12 06:12:55;;;;;;;1.70;1.00;;;;;;;16.19;60.99;101256.97;5132465;28;20046;-82
2022/05/12 06:15:26;;;;;;;2.78;1.20;;;;;;;16.17;61.10;101245.56;5117133;28;20046;-81
2022/05/12 06:17:59;;;;;;;0.57;0.57;;;;;;;16.35;59.45;101250.09;5128116;28;20035;-81
2022/05/12 06:20:33;;;;;;;1.73;1.63;;;;;;;16.20;62.35;101256.03;5153004;28;20035;-81
2022/05/12 06:23:04;;;;;;;1.92;1.77;;;;;;;16.25;61.19;101254.06;5108487;28;20030;-81
2022/05/12 06:25:35;;;;;;;0.73;0.73;;;;;;;16.42;58.99;101258.66;5119873;28;20043;-81
2022/05/12 06:28:08;;;;;;;1.40;1.30;;;;;;;16.41;58.75;101256.03;5123246;28;20019;-81
2022/05/12 06:30:40;;;;;;;2.28;0.60;;;;;;;16.43;59.17;101260.38;5123862;28;20058;-82
2022/05/12 06:33:22;;;;;;;1.15;1.13;;;;;;;16.50;58.43;101263.59;5113911;28;20026;-80
2022/05/12 06:35:58;;;;;;;0.93;0.82;;;;;;;16.50;60.12;101263.59;5150756;28;20540;-81
2022/05/12 06:38:28;;;;;;;4.72;1.45;;;;;;;16.36;61.38;101270.34;5127634;28;20097;-81
2022/05/12 06:40:59;;;;;;;0.77;0.60;;;;;;;16.51;59.03;101266.19;5143213;28;20027;-80
2022/05/12 06:43:30;;;;;;;1.08;0.60;;;;;;;16.54;59.21;101265.19;5147388;28;20094;-81
2022/05/12 06:46:01;;;;;;;1.63;1.40;;;;;;;16.70;58.26;101272.47;5139434;28;20050;-81
2022/05/12 06:48:32;;;;;;;1.05;0.95;;;;;;;16.67;58.98;101271.66;5139920;28;20062;-81
2022/05/12 06:51:03;;;;;;;3.45;2.20;;;;;;;16.65;59.44;101277.97;5126525;28;20031;-81
2022/05/12 06:53:39;;;;;;;2.05;1.48;;;;;;;16.68;59.01;101278.69;5117384;28;20027;-81
2022/05/12 06:56:09;;;;;;;0.77;0.77;;;;;;;16.66;59.01;101275.25;5146705;28;20707;-80
2022/05/12 06:58:40;;;;;;;1.27;1.17;;;;;;;16.60;59.15;101270.22;5141020;28;20128;-81
2022/05/12 07:01:11;;;;;;;2.67;1.05;;;;;;;16.68;58.08;101278.69;5110462;28;20035;-80
2022/05/12 07:03:41;;;;;;;0.50;0.50;;;;;;;16.73;57.93;101282.94;5106247;28;20031;-81
2022/05/12 07:06:12;;;;;;;3.08;1.23;;;;;;;16.78;57.48;101278.28;5138738;28;20026;-81
2022/05/12 07:08:43;;;;;;;0.95;0.68;;;;;;;16.62;56.97;101278.97;5144733;28;20047;-80
2022/05/12 07:11:16;;;;;;;1.10;1.10;;;;;;;16.72;56.85;101274.13;5138156;28;20485;-81
2022/05/12 07:13:46;;;;;;;;;;;;;;;16.67;56.63;101276.97;5139299;28;20043;-81
2022/05/12 07:16:17;;;;;;;0.75;0.75;;;;;;;16.61;56.85;101276.41;5112820;28;20033;-81
2022/05/12 07:18:48;;;;;;;1.35;1.23;;;;;;;16.64;56.22;101287.72;5106736;28;20046;-80
2022/05/12 07:26:57;;;;;;;0.80;0.80;;;;;;;16.82;55.90;101286.03;5137991;28;20027;-81
2022/05/12 07:29:28;;;;;;;0.85;0.60;;;;;;;16.86;56.14;101286.75;5141778;28;20616;-81
2022/05/12 07:31:59;;;;;;;0.65;0.63;;;;;;;16.80;56.22;101282.59;5128524;28;20038;-81
2022/05/12 07:34:29;;;;;;;1.80;0.85;;;;;;;16.88;55.36;101294.63;5138139;28;20126;-80
2022/05/12 07:37:00;;;;;;;0.52;0.52;;;;;;;16.88;54.63;101295.50;5127475;28;20063;-81
2022/05/12 07:39:31;;;;;;;0.70;0.70;;;;;;;16.79;54.56;101303.88;5112201;28;20113;-81
2022/05/12 07:42:04;;;;;;;0.73;0.65;;;;;;;16.81;55.53;101307.31;5110720;28;20150;-81
2022/05/12 07:44:35;;;;;;;0.93;0.93;;;;;;;16.85;54.90;101316.84;5144067;28;20055;-81
2022/05/12 07:47:09;;;;;;;0.40;0.40;;;;;;;16.80;55.04;101308.25;5132082;28;20027;-81
2022/05/12 07:49:42;;;;;;;0.90;0.75;;;;;;;16.87;54.54;101309.69;5116073;28;20093;-81
2022/05/12 07:52:15;;;;;;;0.50;0.50;;;;;;;16.78;54.74;101313.59;5149177;28;20062;-81
2022/05/12 07:54:48;;;;;;;0.43;0.43;;;;;;;16.79;54.42;101312.66;5119785;28;20592;-81
2022/05/12 07:57:21;;;;;;;0.80;0.80;;;;;;;16.81;54.78;101315.28;5105021;29;20044;-81
2022/05/12 07:59:51;;;;;;;1.75;1.05;;;;;;;16.73;55.15;101314.75;5089356;29;20406;-81
2022/05/12 08:02:22;;;;;;;0.45;0.45;;;;;;;16.75;55.40;101316.38;5106818;29;20118;-81
2022/05/12 08:04:52;;;;;;;3.13;0.85;;;;;;;16.84;55.46;101320.41;5103562;29;20621;-81
2022/05/12 08:07:23;;;;;;;0.80;0.80;;;;;;;16.96;54.48;101319.91;5104474;29;20145;-81
2022/05/12 08:09:57;;;;;;;0.38;0.38;;;;;;;17.04;54.65;101322.22;5108167;28;20047;-81
2022/05/12 08:12:30;;;;;;;0.93;0.93;;;;;;;17.07;54.11;101331.81;5108058;29;20032;-80
2022/05/12 08:15:05;;;;;;;0.35;0.35;;;;;;;16.96;52.17;101333.19;5122202;29;20046;-80
2022/05/12 08:17:36;;;;;;;2.30;1.60;;;;;;;16.98;53.75;101339.25;5142198;28;20036;-80
2022/05/12 08:20:11;;;;;;;0.30;0.30;;;;;;;16.99;53.51;101335.66;5126541;28;20023;-80
2022/05/12 08:22:41;;;;;;;0.65;0.65;;;;;;;17.00;53.44;101341.84;5124184;28;20046;-80
2022/05/12 08:25:12;;;;;;;0.55;0.55;;;;;;;17.05;53.84;101346.94;5092264;29;20055;-80
2022/05/12 08:27:43;;;;;;;0.68;0.68;;;;;;;16.99;53.77;101343.63;5105152;29;20043;-80
2022/05/12 08:30:16;;;;;;;1.10;0.90;;;;;;;17.14;53.41;101347.38;5090971;29;20039;-80
2022/05/12 08:32:47;;;;;;;0.60;0.60;;;;;;;17.17;53.80;101349.03;5091728;29;20438;-80
2022/05/12 08:35:17;;;;;;;0.73;0.60;;;;;;;17.17;54.48;101343.72;5122716;28;20051;-80
2022/05/12 08:37:48;;;;;;;0.43;0.43;;;;;;;17.20;54.19;101348.91;5128695;28;20206;-80
2022/05/12 08:40:37;;;;;;;1.58;0.88;;;;;;;17.29;53.63;101347.63;5127146;28;20061;-80
2022/05/12 08:43:38;;;;;;;0.70;0.70;;;;;;;17.33;53.32;101358.94;5132483;28;20039;-81
2022/05/12 08:46:40;;;;;;;0.50;0.50;;;;;;;17.26;53.33;101353.09;5124011;28;20031;-80
2022/05/12 08:49:19;;;;;;;1.45;0.55;;;;;;;17.40;52.96;101349.78;5109816;28;20103;-80
2022/05/12 08:52:09;;;;;;;0.60;0.60;;;;;;;17.35;51.47;101357.09;5125517;28;20039;-80
2022/05/12 08:54:45;;;;;;;0.75;0.75;;;;;;;17.42;52.30;101354.09;5121659;28;20035;-81
2022/05/12 08:57:27;;;;;;;0.30;0.30;;;;;;;17.50;51.71;101351.09;5108854;28;20030;-80
2022/05/12 09:00:05;;;;;;;0.57;0.57;;;;;;;17.56;52.52;101350.78;5152479;28;20657;-80
2022/05/12 09:02:55;;;;;;;0.35;0.30;;;;;;;17.50;51.84;101356.38;5110307;28;20047;-81
2022/05/12 09:05:34;;;;;;;1.65;0.68;;;;;;;17.57;51.55;101355.16;5111733;28;20042;-80
2022/05/12 09:08:05;;;;;;;0.63;0.63;;;;;;;17.57;51.09;101352.53;5124169;28;20623;-80
2022/05/12 09:10:53;;;;;;;0.30;0.30;;;;;;;17.66;51.14;101350.38;5140799;28;20042;-81
2022/05/12 09:13:50;;;;;;;0.45;0.45;;;;;;;17.75;51.12;101350.81;5137975;28;20027;-80
2022/05/12 09:16:25;;;;;;;6.22;0.57;;;;;;;17.78;50.45;101344.50;5140406;28;20570;-80
2022/05/12 09:19:11;;;;;;;0.70;0.38;;;;;;;17.84;49.75;101349.50;5133722;28;20151;-80
2022/05/12 09:21:44;;;;;;;0.30;0.30;;;;;;;17.92;50.50;101347.34;5108258;28;20085;-80
2022/05/12 09:24:14;;;;;;;0.30;0.30;;;;;;;17.96;50.10;101348.09;5123804;28;20529;-80
2022/05/12 09:26:46;;;;;;;0.70;0.70;;;;;;;18.05;50.13;101347.66;5121283;28;20055;-80
2022/05/12 09:29:33;;;;;;;0.40;0.40;;;;;;;18.11;49.47;101340.31;5127230;28;20038;-80
2022/05/12 09:32:04;;;;;;;0.20;0.20;;;;;;;18.06;49.24;101337.88;5107426;28;20027;-80
2022/05/12 09:34:40;;;;;;;0.95;0.93;;;;;;;18.15;49.77;101342.72;5106047;28;20134;-80
2022/05/12 09:37:16;;;;;;;0.20;0.20;;;;;;;18.18;49.49;101341.75;5104365;28;20098;-80
2022/05/12 09:39:53;;;;;;;0.47;0.47;;;;;;;18.22;48.22;101338.00;5122741;28;20069;-80
2022/05/12 09:42:27;;;;;;;0.90;0.80;;;;;;;18.24;48.12;101339.63;5122396;28;20438;-80
2022/05/12 09:45:24;;;;;;;0.35;0.35;;;;;;;18.30;48.20;101342.94;5137536;28;20039;-80
2022/05/12 09:48:28;;;;;;;0.68;0.60;;;;;;;18.33;46.84;101334.78;5125867;28;20041;-81
2022/05/12 09:51:17;;;;;;;;;;;;;;;18.43;47.59;101349.34;5117661;28;20097;-81
2022/05/12 09:53:50;;;;;;;0.30;0.30;;;;;;;18.44;46.97;101343.09;5106783;28;19918;-80
2022/05/12 09:56:29;;;;;;;0.50;0.50;;;;;;;18.51;47.53;101343.66;5104810;28;20031;-80
2022/05/12 09:59:14;;;;;;;0.57;0.55;;;;;;;18.61;46.01;101344.03;5119149;28;20166;-81
2022/05/12 10:01:53;;;;;;;0.45;0.45;;;;;;;18.64;45.99;101334.09;5105402;28;20027;-81
2022/05/12 10:10:31;;;;;;;0.47;0.47;;;;;;;18.63;44.62;101331.53;5136275;28;20073;-81
2022/05/12 10:13:24;;;;;;;0.20;0.20;;;;;;;18.65;45.34;101314.56;5129358;28;20111;-81
2022/05/12 10:15:56;;;;;;;0.35;0.35;;;;;;;18.63;44.23;101319.09;5114807;28;20275;-81
2022/05/12 10:18:37;;;;;;;0.47;0.47;;;;;;;18.74;45.06;101310.56;5120002;28;20040;-81
2022/05/12 10:21:20;;;;;;;0.30;0.30;;;;;;;18.86;44.98;101314.38;5126001;28;20481;-82
2022/05/12 10:24:20;;;;;;;0.30;0.30;;;;;;;19.05;45.21;101311.63;5096901;28;20105;-81
2022/05/12 10:27:07;;;;;;;0.20;0.20;;;;;;;19.09;44.81;101313.19;5127037;28;20104;-82
2022/05/12 10:29:59;;;;;;;0.22;0.22;;;;;;;19.13;43.88;101314.72;5134026;28;20122;-82
2022/05/12 10:33:04;;;;;;;0.30;0.30;;;;;;;19.16;44.41;101330.53;5107407;28;20107;-82
2022/05/12 10:35:45;;;;;;;1.42;1.33;;;;;;;19.24;44.69;101323.94;5142821;28;20031;-82
2022/05/12 10:38:24;;;;;;;0.32;0.32;;;;;;;19.37;44.97;101317.03;5156283;28;20546;-81
2022/05/12 10:41:12;;;;;;;1.10;0.85;;;;;;;19.45;44.60;101311.25;5137721;28;20043;-81
2022/05/12 10:43:48;;;;;;;0.47;0.47;;;;;;;19.63;44.51;101301.38;5128082;28;20039;-82
2022/05/12 10:46:47;;;;;;;0.30;0.30;;;;;;;19.66;44.38;101310.09;5118642;28;20041;-81
2022/05/12 10:49:25;;;;;;;0.30;0.30;;;;;;;19.62;44.68;101311.19;5116971;28;20324;-80
2022/05/12 10:52:02;;;;;;;0.52;0.38;;;;;;;19.61;43.90;101319.28;5150819;28;20039;-81
2022/05/12 10:54:52;;;;;;;0.30;0.30;;;;;;;19.57;44.52;101307.94;5124203;28;20047;-80
2022/05/12 10:57:37;;;;;;;0.63;0.63;;;;;;;19.71;44.15;101304.47;5108618;28;20045;-80
2022/05/12 11:00:31;;;;;;;1.30;0.98;;;;;;;19.70;43.92;101313.44;5141129;28;20058;-81
2022/05/12 11:03:23;;;;;;;0.30;0.30;;;;;;;19.68;43.15;101307.34;5110306;28;20054;-81
2022/05/12 11:05:57;;;;;;;0.50;0.50;;;;;;;19.66;42.27;101306.56;5137967;28;20473;-81
2022/05/12 11:08:44;;;;;;;0.70;0.35;;;;;;;19.79;42.86;101310.22;5134222;28;20085;-81
2022/05/12 11:11:19;;;;;;;1.27;0.63;;;;;;;19.85;42.38;101305.56;5129524;28;20852;-81
2022/05/12 11:14:07;;;;;;;0.35;0.35;;;;;;;19.92;41.92;101304.25;5112558;28;20038;-81
2022/05/12 11:17:00;;;;;;;3.30;0.50;;;;;;;19.86;39.02;101302.78;5138572;28;20023;-80
2022/05/12 11:19:30;;;;;;;0.45;0.45;;;;;;;19.87;39.37;101298.34;5108878;28;20574;-80
2022/05/12 11:22:26;;;;;;;0.55;0.55;;;;;;;19.99;39.97;101297.63;5113343;28;20105;-81
2022/05/12 11:25:28;;;;;;;0.25;0.25;;;;;;;20.12;39.94;101292.44;5140003;28;20043;-82
2022/05/12 11:31:13;;;;;;;0.20;0.20;;;;;;;20.18;40.36;101299.22;5138825;28;20051;-83
2022/05/12 11:33:52;;;;;;;0.40;0.40;;;;;;;20.25;39.91;101298.75;5109932;28;20043;-80
2022/05/12 11:36:37;;;;;;;2.78;1.33;;;;;;;20.20;39.08;101297.34;5109399;28;20038;-81
2022/05/12 11:39:43;;;;;;;0.47;0.47;;;;;;;20.24;39.78;101290.88;5124461;28;20043;-81
2022/05/12 11:42:22;;;;;;;0.40;0.40;;;;;;;20.33;40.77;101297.47;5120994;28;20035;-81
2022/05/12 11:45:01;;;;;;;0.20;0.20;;;;;;;20.39;40.86;101302.44;5123908;28;20081;-82
2022/05/12 11:47:53;;;;;;;0.28;0.28;;;;;;;20.51;40.07;101290.19;5123363;28;20031;-80
2022/05/12 11:50:48;;;;;;;0.95;0.90;;;;;;;20.53;40.32;101290.94;5125386;28;20047;-81
2022/05/12 11:53:55;;;;;;;0.32;0.32;;;;;;;20.72;40.56;101280.88;5131763;28;20050;-81
2022/05/12 11:56:42;;;;;;;0.30;0.30;;;;;;;20.66;40.15;101273.25;5124086;28;20039;-79
2022/05/12 11:59:18;;;;;;;0.45;0.45;;;;;;;20.71;41.29;101276.47;5108860;28;20054;-81
2022/05/12 12:01:54;;;;;;;0.20;0.20;;;;;;;20.84;39.45;101273.94;5144853;28;20027;-81
2022/05/12 12:04:39;;;;;;;0.40;0.40;;;;;;;20.89;39.31;101281.66;5110824;28;20126;-81
2022/05/12 12:07:15;;;;;;;0.40;0.40;;;;;;;20.88;39.39;101285.28;5141506;28;20470;-81
2022/05/12 12:09:45;;;;;;;0.45;0.45;;;;;;;20.96;40.20;101277.66;5126968;28;20047;-80
2022/05/12 12:12:40;;;;;;;0.32;0.32;;;;;;;20.98;39.97;101281.09;5104851;28;20521;-80
2022/05/12 12:15:34;;;;;;;0.93;0.60;;;;;;;20.92;38.95;101286.81;5118269;28;20031;-81
2022/05/12 12:18:17;;;;;;;1.52;1.02;;;;;;;20.78;38.98;101279.66;5087645;29;20718;-83
2022/05/12 12:20:52;;;;;;;0.38;0.30;;;;;;;20.90;39.32;101284.25;5101689;29;20062;-79
2022/05/12 12:23:27;;;;;;;0.22;0.22;;;;;;;21.15;39.42;101281.84;5086544;28;20091;-80
2022/05/12 12:26:05;;;;;;;0.57;0.40;;;;;;;21.13;38.23;101278.41;5125945;28;20670;-79